createdAt,value
2022-08-12T00:00:37.287Z,24.70
2022-08-12T00:06:48.642Z,24.50
2022-08-12T00:09:53.335Z,24.40
2022-08-12T00:12:57.882Z,24.70
2022-08-12T00:16:03.638Z,24.70
2022-08-12T00:22:12.942Z,24.50
2022-08-12T00:25:55.729Z,24.60
2022-08-12T00:28:46.818Z,24.40
2022-08-12T00:34:55.842Z,24.40
2022-08-12T00:43:56.081Z,24.50
2022-08-12T00:46:53.741Z,24.40
2022-08-12T00:49:41.098Z,24.40
2022-08-12T00:52:26.712Z,24.40
2022-08-12T00:55:13.378Z,24.40
2022-08-12T01:00:45.569Z,24.30
2022-08-12T01:03:55.741Z,24.20
2022-08-12T01:07:03.282Z,24.20
2022-08-12T01:12:54.312Z,24.20
2022-08-12T01:15:58.221Z,24.00
2022-08-12T01:18:45.118Z,23.60
2022-08-12T01:22:02.406Z,24.10
2022-08-12T01:25:05.426Z,24.10
2022-08-12T01:27:53.132Z,24.10
2022-08-12T01:30:42.474Z,23.80
2022-08-12T01:33:34.949Z,24.10
2022-08-12T01:36:25.834Z,24.00
2022-08-12T01:39:15.869Z,24.00
2022-08-12T01:42:08.939Z,24.00
2022-08-12T01:48:13.702Z,23.90
2022-08-12T01:52:04.502Z,23.90
2022-08-12T01:57:14.890Z,23.90
2022-08-12T02:00:06.556Z,24.00
2022-08-12T02:06:17.672Z,24.10
2022-08-12T02:09:23.553Z,23.80
2022-08-12T02:15:04.714Z,23.60
2022-08-12T02:18:26.114Z,23.80
2022-08-12T02:21:41.994Z,23.60
2022-08-12T02:24:32.190Z,23.70
2022-08-12T02:27:20.400Z,23.70
2022-08-12T02:30:09.463Z,23.60
2022-08-12T02:32:56.506Z,23.60
2022-08-12T02:35:42.569Z,23.50
2022-08-12T02:38:31.112Z,23.70
2022-08-12T02:41:18.772Z,23.40
2022-08-12T02:44:08.853Z,23.30
2022-08-12T02:47:01.137Z,23.30
2022-08-12T02:49:55.769Z,23.10
2022-08-12T02:52:43.735Z,23.20
2022-08-12T02:55:34.845Z,23.00
2022-08-12T02:58:20.897Z,23.00
2022-08-12T03:01:24.989Z,23.10
2022-08-12T03:04:20.613Z,23.10
2022-08-12T03:07:32.582Z,23.20
2022-08-12T03:10:35.036Z,23.10
2022-08-12T03:13:26.509Z,23.00
2022-08-12T03:16:12.665Z,23.00
2022-08-12T03:18:59.034Z,23.00
2022-08-12T03:21:55.334Z,22.90
2022-08-12T03:24:52.284Z,23.10
2022-08-12T03:27:48.026Z,23.10
2022-08-12T03:30:34.081Z,23.00
2022-08-12T03:33:21.537Z,23.00
2022-08-12T03:36:08.949Z,22.70
2022-08-12T03:39:15.474Z,22.80
2022-08-12T03:42:38.754Z,22.90
2022-08-12T03:45:52.625Z,22.80
2022-08-12T03:49:00.208Z,22.70
2022-08-12T03:55:10.208Z,21.50
2022-08-12T03:58:14.694Z,22.20
2022-08-12T04:01:00.764Z,22.20
2022-08-12T04:03:53.260Z,22.00
2022-08-12T04:06:47.197Z,21.60
2022-08-12T04:09:33.335Z,21.60
2022-08-12T04:15:28.916Z,21.40
2022-08-12T04:18:18.425Z,22.10
2022-08-12T04:21:10.000Z,21.50
2022-08-12T04:23:56.437Z,21.40
2022-08-12T04:26:42.096Z,22.60
2022-08-12T04:30:16.476Z,22.60
2022-08-12T04:32:35.271Z,21.40
2022-08-12T04:35:21.296Z,21.70
2022-08-12T04:38:07.896Z,21.40
2022-08-12T04:40:54.389Z,21.70
2022-08-12T04:49:34.845Z,21.60
2022-08-12T04:55:10.290Z,21.70
2022-08-12T04:57:56.453Z,20.90
2022-08-12T05:00:41.873Z,21.80
2022-08-12T05:03:27.998Z,21.50
2022-08-12T05:06:20.794Z,21.80
2022-08-12T05:09:13.804Z,22.60
2022-08-12T05:11:59.293Z,21.50
2022-08-12T05:14:44.843Z,21.80
2022-08-12T05:20:19.835Z,21.80
2022-08-12T05:23:12.474Z,21.70
2022-08-12T05:25:59.120Z,21.70
2022-08-12T05:28:46.220Z,21.80
2022-08-12T05:31:42.509Z,21.90
2022-08-12T05:37:23.342Z,21.30
2022-08-12T05:40:11.527Z,21.90
2022-08-12T05:42:57.298Z,22.20
2022-08-12T05:45:44.938Z,22.20
2022-08-12T05:51:17.624Z,22.20
2022-08-12T05:54:03.769Z,22.10
2022-08-12T05:56:49.179Z,22.00
2022-08-12T05:59:35.027Z,21.50
2022-08-12T06:02:20.924Z,21.80
2022-08-12T06:08:02.137Z,21.80
2022-08-12T06:13:52.911Z,22.20
2022-08-12T06:20:25.859Z,22.60
2022-08-12T06:22:35.095Z,22.70
2022-08-12T06:25:21.990Z,22.90
2022-08-12T06:28:17.431Z,22.80
2022-08-12T06:35:26.731Z,23.40
2022-08-12T06:40:06.795Z,23.50
2022-08-12T06:45:46.809Z,23.60
2022-08-12T06:48:33.378Z,24.40
2022-08-12T06:51:20.747Z,24.20
2022-08-12T06:54:07.312Z,24.70
2022-08-12T06:57:04.217Z,25.50
2022-08-12T07:02:37.551Z,24.90
2022-08-12T07:05:27.097Z,24.40
2022-08-12T07:08:13.962Z,25.10
2022-08-12T07:11:05.022Z,25.20
2022-08-12T07:14:11.621Z,25.60
2022-08-12T07:17:02.271Z,25.10
2022-08-12T07:25:40.406Z,26.40
2022-08-12T07:28:30.934Z,26.20
2022-08-12T07:34:05.157Z,26.40
2022-08-12T07:36:51.240Z,26.20
2022-08-12T07:39:36.910Z,26.50
2022-08-12T07:42:35.825Z,26.20
2022-08-12T07:45:22.056Z,26.00
2022-08-12T07:48:07.870Z,25.30
2022-08-12T07:50:53.987Z,25.10
2022-08-12T07:53:54.831Z,25.40
2022-08-12T07:56:46.240Z,25.00
2022-08-12T07:59:35.835Z,25.10
2022-08-12T08:02:26.461Z,25.90
2022-08-12T08:05:13.115Z,25.60
2022-08-12T08:08:02.434Z,25.30
2022-08-12T08:10:51.286Z,25.50
2022-08-12T08:19:23.995Z,26.60
2022-08-12T08:22:10.576Z,26.40
2022-08-12T08:27:47.564Z,26.00
2022-08-12T08:30:34.286Z,25.90
2022-08-12T08:34:04.249Z,25.80
2022-08-12T08:36:25.721Z,25.90
2022-08-12T08:39:21.589Z,26.20
2022-08-12T08:45:15.911Z,26.10
2022-08-12T08:48:02.373Z,26.60
2022-08-12T08:51:04.541Z,26.50
2022-08-12T08:53:52.721Z,26.70
2022-08-12T08:56:50.175Z,26.90
2022-08-12T08:59:36.241Z,26.70
2022-08-12T09:02:22.086Z,26.70
2022-08-12T09:05:14.813Z,26.30
2022-08-12T09:08:13.256Z,26.40
2022-08-12T09:12:06.451Z,26.60
2022-08-12T09:14:29.249Z,27.30
2022-08-12T09:17:21.020Z,27.40
2022-08-12T09:20:09.390Z,26.60
2022-08-12T09:22:57.647Z,25.90
2022-08-12T09:25:48.433Z,26.60
2022-08-12T09:28:34.451Z,27.50
2022-08-12T09:32:07.820Z,27.00
2022-08-12T09:34:33.380Z,27.00
2022-08-12T09:37:22.606Z,26.70
2022-08-12T09:40:57.103Z,26.20
2022-08-12T09:43:35.956Z,27.10
2022-08-12T09:49:16.397Z,27.40
2022-08-12T09:52:02.698Z,28.50
2022-08-12T09:58:46.633Z,28.30
2022-08-12T10:00:52.278Z,28.60
2022-08-12T10:04:02.881Z,28.00
2022-08-12T10:06:55.386Z,28.90
2022-08-12T10:13:07.145Z,29.60
2022-08-12T10:16:02.224Z,29.20
2022-08-12T10:18:57.794Z,29.30
2022-08-12T10:21:44.988Z,29.40
2022-08-12T10:24:30.815Z,29.20
2022-08-12T10:30:44.147Z,28.20
2022-08-12T10:33:43.836Z,28.40
2022-08-12T10:36:44.447Z,28.30
2022-08-12T10:40:01.502Z,28.10
2022-08-12T10:43:00.345Z,28.00
2022-08-12T10:45:49.751Z,27.40
2022-08-12T10:48:35.599Z,27.80
2022-08-12T10:52:04.803Z,27.90
2022-08-12T10:54:27.428Z,28.30
2022-08-12T10:57:18.182Z,28.80
2022-08-12T11:00:34.600Z,28.60
2022-08-12T11:04:35.919Z,28.80
2022-08-12T11:07:08.852Z,28.30
2022-08-12T11:09:42.001Z,29.00
2022-08-12T11:12:59.740Z,28.20
2022-08-12T11:16:04.267Z,28.50
2022-08-12T11:18:55.525Z,28.00
2022-08-12T11:21:58.480Z,28.00
2022-08-12T11:24:51.055Z,28.30
2022-08-12T11:27:37.410Z,28.00
2022-08-12T11:33:52.659Z,28.50
2022-08-12T11:41:59.594Z,28.70
2022-08-12T11:44:45.506Z,28.80
2022-08-12T11:50:19.399Z,28.50
2022-08-12T11:53:05.445Z,28.20
2022-08-12T11:56:11.310Z,28.80
2022-08-12T12:04:52.683Z,29.10
2022-08-12T12:08:41.296Z,28.90
2022-08-12T12:10:50.426Z,29.00
2022-08-12T12:16:48.133Z,29.00
2022-08-12T12:22:31.550Z,28.80
2022-08-12T12:25:19.762Z,29.40
2022-08-12T12:28:06.459Z,29.80
2022-08-12T12:30:54.731Z,29.10
2022-08-12T12:33:57.366Z,28.80
2022-08-12T12:36:47.739Z,28.50
2022-08-12T12:45:46.745Z,28.80
2022-08-12T12:51:49.482Z,29.30
2022-08-12T12:54:26.035Z,29.20
2022-08-12T12:57:14.817Z,29.30
2022-08-12T13:00:15.172Z,29.70
2022-08-12T13:03:01.296Z,28.90
2022-08-12T13:08:40.300Z,29.10
2022-08-12T13:11:40.699Z,29.10
2022-08-12T13:14:29.621Z,29.40
2022-08-12T13:17:19.892Z,29.50
2022-08-12T13:20:06.321Z,29.90
2022-08-12T13:25:43.487Z,29.80
2022-08-12T13:28:31.388Z,29.60
2022-08-12T13:31:17.159Z,29.00
2022-08-12T13:45:32.871Z,29.20
2022-08-12T13:51:06.096Z,28.90
2022-08-12T13:53:57.644Z,29.10
2022-08-12T14:02:41.473Z,29.70
2022-08-12T14:05:37.982Z,30.20
2022-08-12T14:08:24.009Z,29.90
2022-08-12T14:20:05.466Z,30.20
2022-08-12T14:28:32.395Z,29.30
2022-08-12T14:31:19.088Z,29.60
2022-08-12T14:36:52.613Z,29.50
2022-08-12T14:39:39.211Z,29.90
2022-08-12T14:42:26.100Z,29.30
2022-08-12T14:47:58.963Z,29.60
2022-08-12T14:51:09.723Z,30.10
2022-08-12T14:56:26.269Z,29.60
2022-08-12T14:57:19.391Z,29.50
2022-08-12T15:00:28.485Z,30.10
2022-08-12T15:03:15.266Z,30.20
2022-08-12T15:06:39.474Z,30.40
2022-08-12T15:09:13.521Z,29.90
2022-08-12T15:17:39.306Z,29.60
2022-08-12T15:23:29.183Z,29.60
2022-08-12T15:26:21.232Z,29.90
2022-08-12T15:29:14.452Z,29.60
2022-08-12T15:32:07.667Z,30.10
2022-08-12T15:38:11.129Z,29.90
2022-08-12T15:40:52.343Z,28.40
2022-08-12T15:44:15.836Z,29.50
2022-08-12T15:49:54.610Z,28.90
2022-08-12T15:52:35.436Z,29.20
2022-08-12T15:55:24.414Z,29.00
2022-08-12T15:58:19.312Z,29.50
2022-08-12T16:01:13.837Z,29.60
2022-08-12T16:04:00.638Z,29.30
2022-08-12T16:10:04.981Z,29.70
2022-08-12T16:12:56.440Z,29.30
2022-08-12T16:18:48.013Z,29.30
2022-08-12T16:21:51.094Z,28.90
2022-08-12T16:24:43.630Z,29.20
2022-08-12T16:27:31.590Z,28.90
2022-08-12T16:30:32.762Z,29.10
2022-08-12T16:33:19.619Z,29.00
2022-08-12T16:36:11.376Z,29.10
2022-08-12T16:39:01.585Z,28.30
2022-08-12T16:44:36.217Z,28.90
2022-08-12T16:50:16.180Z,29.10
2022-08-12T16:55:52.048Z,28.80
2022-08-12T16:58:38.215Z,28.70
2022-08-12T17:01:23.976Z,28.70
2022-08-12T17:04:12.062Z,28.00
2022-08-12T17:09:51.100Z,28.60
2022-08-12T17:12:38.291Z,28.80
2022-08-12T17:18:42.742Z,28.20
2022-08-12T17:21:40.744Z,28.50
2022-08-12T17:24:43.803Z,28.20
2022-08-12T17:27:40.372Z,28.50
2022-08-12T17:30:27.608Z,28.40
2022-08-12T17:33:16.970Z,28.10
2022-08-12T17:38:51.641Z,27.70
2022-08-12T17:44:43.653Z,28.10
2022-08-12T17:50:22.089Z,28.10
2022-08-12T17:53:18.094Z,28.00
2022-08-12T17:58:58.368Z,27.20
2022-08-12T18:04:35.858Z,26.10
2022-08-12T18:07:23.516Z,25.30
2022-08-12T18:10:12.790Z,24.90
2022-08-12T18:13:01.227Z,24.30
2022-08-12T18:18:53.737Z,23.10
2022-08-12T18:22:01.166Z,23.00
2022-08-12T18:27:44.121Z,22.80
2022-08-12T18:30:33.393Z,22.70
2022-08-12T18:33:19.811Z,22.70
2022-08-12T18:36:08.870Z,22.70
2022-08-12T18:39:00.018Z,22.70
2022-08-12T18:41:46.977Z,23.30
2022-08-12T18:44:33.578Z,22.60
2022-08-12T18:47:20.908Z,22.80
2022-08-12T18:50:10.874Z,22.90
2022-08-12T18:52:57.238Z,22.80
2022-08-12T18:55:59.330Z,23.00
2022-08-12T18:58:59.220Z,22.90
2022-08-12T19:02:20.789Z,23.80
2022-08-12T19:04:57.355Z,23.10
2022-08-12T19:07:59.966Z,23.20
2022-08-12T19:10:50.555Z,23.20
2022-08-12T19:13:55.581Z,23.60
2022-08-12T19:16:43.935Z,23.40
2022-08-12T19:19:38.870Z,23.30
2022-08-12T19:22:28.982Z,23.40
2022-08-12T19:25:23.595Z,23.70
2022-08-12T19:28:35.493Z,23.40
2022-08-12T19:31:56.927Z,23.30
2022-08-12T19:38:03.565Z,23.00
2022-08-12T19:40:54.939Z,23.20
2022-08-12T19:44:00.776Z,23.00
2022-08-12T19:46:52.756Z,23.00
2022-08-12T19:49:50.016Z,22.90
2022-08-12T19:55:23.306Z,22.80
2022-08-12T19:58:11.847Z,22.80
2022-08-12T20:01:11.024Z,22.70
2022-08-12T20:04:00.055Z,22.60
2022-08-12T20:06:51.517Z,22.60
2022-08-12T20:09:42.561Z,22.50
2022-08-12T20:12:32.909Z,22.60
2022-08-12T20:15:22.027Z,22.80
2022-08-12T20:18:43.797Z,22.80
2022-08-12T20:21:17.455Z,22.70
2022-08-12T20:24:11.958Z,22.70
2022-08-12T20:27:02.786Z,22.90
2022-08-12T20:29:56.042Z,22.80
2022-08-12T20:32:54.029Z,22.60
2022-08-12T20:38:46.119Z,22.40
2022-08-12T20:41:33.343Z,22.70
2022-08-12T20:47:18.422Z,22.60
2022-08-12T20:50:09.302Z,22.90
2022-08-12T20:55:44.307Z,22.50
2022-08-12T20:58:43.027Z,22.30
2022-08-12T21:01:47.105Z,22.10
2022-08-12T21:04:52.713Z,22.00
2022-08-12T21:07:40.739Z,22.00
2022-08-12T21:10:35.839Z,21.10
2022-08-12T21:16:09.858Z,21.30
2022-08-12T21:18:57.420Z,21.10
2022-08-12T21:21:50.155Z,21.30
2022-08-12T21:24:36.149Z,21.50
2022-08-12T21:27:59.146Z,21.40
2022-08-12T21:34:07.831Z,21.30
2022-08-12T21:39:51.897Z,21.40
2022-08-12T21:42:39.990Z,21.40
2022-08-12T21:45:46.917Z,21.30
2022-08-12T21:48:33.205Z,21.10
2022-08-12T21:51:22.961Z,21.00
2022-08-12T21:56:55.870Z,21.40
2022-08-12T21:59:42.847Z,21.50
2022-08-12T22:05:53.024Z,21.00
2022-08-12T22:08:38.656Z,21.00
2022-08-12T22:11:41.022Z,20.80
2022-08-12T22:14:29.213Z,20.80
2022-08-12T22:17:20.239Z,20.70
2022-08-12T22:20:12.700Z,21.40
2022-08-12T22:23:00.288Z,20.80
2022-08-12T22:28:57.159Z,21.10
2022-08-12T22:34:33.341Z,21.00
2022-08-12T22:37:19.921Z,20.80
2022-08-12T22:40:06.970Z,21.00
2022-08-12T22:43:15.565Z,20.50
2022-08-12T22:46:20.680Z,20.50
2022-08-12T22:49:06.678Z,20.40
2022-08-12T22:52:00.932Z,20.20
2022-08-12T22:55:02.703Z,20.60
2022-08-12T22:57:54.773Z,21.50
2022-08-12T23:00:52.812Z,20.70
2022-08-12T23:03:49.037Z,20.80
2022-08-12T23:06:36.342Z,20.70
2022-08-12T23:09:26.366Z,20.50
2022-08-12T23:18:23.672Z,21.00
2022-08-12T23:24:10.926Z,20.70
2022-08-12T23:27:18.178Z,20.80
2022-08-12T23:30:18.515Z,20.30
2022-08-12T23:33:20.166Z,20.90
2022-08-12T23:39:06.644Z,20.80
2022-08-12T23:42:17.371Z,21.00
2022-08-12T23:45:18.975Z,20.70
2022-08-12T23:48:07.363Z,21.20
2022-08-12T23:50:57.966Z,20.50
2022-08-12T23:53:44.078Z,20.90
2022-08-12T23:56:34.907Z,20.30
2022-08-12T23:59:22.883Z,20.80
